Denhart, Iowa
Current Conditions -  °F | °C
As of 6:15 AM on Friday 21 Nov 2014 (Local Time) from KCAV Reporting Station
Clear Clear  
Wind Chill: -20°   Ceiling: Unl
Heat Index: -13°   Visibility: 10mi
Dew Point: -16°   Wind: 9mph
Humidity: 79%   Direction: 140°SE
Pressure: 30.26"   Gusts: NA
Location:  42.9524°N, 93.7361°W
Report Text: KCAV 211215Z AUTO 14008KT 10SM CLR M13/M16 A3026 RMK AO2
Loading
Personal Weather Stations






























Interactive Weather Map New forecast layout! Learn more

10-Day Weather Forecast

Advertisements
Track Severe Weather on mobile